Flight Track Log - Related Links

Times and Time Zones

All times are in EST time to prevent confusion due to time zone crossing. See the CSN6817 flight status page for this flight to view local times or setup timezone preferences in your user account.

Time Position Orientation Groundspeed Altitude Reporting Facility
EST Latitude Longitude Course Direction KTS MPH feet Rate Location/Type
Wed 05:30:00 AM 43.3111 86.7227 223° Southwest  Level Estimated
Wed 05:31:00 AM 43.2363 86.6298 222° Southwest  Level Estimated
Wed 05:32:00 AM 43.1614 86.5371 222° Southwest  Level Estimated
Wed 05:33:00 AM 43.0864 86.4447 222° Southwest  Level Estimated
Wed 05:34:00 AM 43.0113 86.3525 222° Southwest  Level Estimated
Wed 05:35:00 AM 42.9362 86.2605 222° Southwest  Level Estimated
Wed 05:36:00 AM 42.8610 86.1687 222° Southwest  Level Estimated
Wed 05:37:00 AM 42.7857 86.0771 222° Southwest  Level Estimated
Wed 05:38:00 AM 42.7103 85.9858 222° Southwest  Level Estimated
Wed 05:39:00 AM 42.6349 85.8947 222° Southwest  Level Estimated
Wed 05:40:00 AM 42.5594 85.8038 222° Southwest  Level Estimated
Wed 05:41:00 AM 42.4838 85.7132 222° Southwest  Level Estimated
Wed 05:42:00 AM 42.4081 85.6227 221° Southwest  Level Estimated
Wed 05:43:00 AM 42.3324 85.5325 221° Southwest  Level Estimated
Wed 05:44:00 AM 42.2566 85.4425 221° Southwest  Level Estimated
Wed 05:45:00 AM 42.1808 85.3527 221° Southwest  Level Estimated
Wed 05:46:00 AM 42.1049 85.2631 221° Southwest  Level Estimated
Wed 05:47:00 AM 42.0289 85.1738 221° Southwest  Level Estimated
Wed 05:48:00 AM 41.9528 85.0846 221° Southwest  Level Estimated
Wed 05:49:00 AM 41.8767 84.9957 221° Southwest  Level Estimated
Wed 05:50:00 AM 41.8004 84.9070 221° Southwest  Level Estimated
Wed 05:51:00 AM 41.7242 84.8184 221° Southwest  Level Estimated
Wed 05:52:00 AM 41.6478 84.7301 221° Southwest  Level Estimated
Wed 05:53:00 AM 41.5714 84.6420 221° Southwest  Level Estimated
Wed 05:54:00 AM 41.4950 84.5542 221° Southwest  Level Estimated
Wed 05:55:00 AM 41.4184 84.4665 221° Southwest  Level Estimated
Wed 05:56:00 AM 41.3418 84.3790 221° Southwest  Level Estimated
Wed 05:57:00 AM 41.2651 84.2917 221° Southwest  Level Estimated
Wed 05:58:00 AM 41.1884 84.2047 221° Southwest  Level Estimated
Wed 05:59:00 AM 41.1116 84.1178 220° Southwest  Level Estimated
Wed 06:00:00 AM 41.0347 84.0312 220° Southwest  Level Estimated
Wed 06:01:00 AM 40.9578 83.9447 220° Southwest  Level Estimated
Wed 06:02:00 AM 40.8808 83.8585 220° Southwest  Level Estimated
Wed 06:03:00 AM 40.8037 83.7724 220° Southwest  Level Estimated
Wed 06:04:00 AM 40.7266 83.6865 220° Southwest  Level Estimated
Wed 06:05:00 AM 40.6494 83.6009 220° Southwest  Level Estimated
Wed 06:06:00 AM 40.5722 83.5154 220° Southwest  Level Estimated
Wed 06:07:00 AM 40.4949 83.4302 220° Southwest  Level Estimated
Wed 06:08:00 AM 40.4175 83.3451 220° Southwest  Level Estimated
Wed 06:09:00 AM 40.3400 83.2602 220° Southwest  Level Estimated
Wed 06:10:00 AM 40.2625 83.1756 220° Southwest  Level Estimated
Wed 06:11:00 AM 40.1850 83.0911 220° Southwest  Level Estimated
Wed 06:12:00 AM 40.1073 83.0068 220° Southwest  Level Estimated
Wed 06:13:00 AM 40.0297 82.9227 220° Southwest  Level Estimated
Wed 06:14:00 AM 39.9519 82.8388 220° Southwest  Level Estimated
Wed 06:15:00 AM 39.8741 82.7551 220° Southwest  Level Estimated
Wed 06:16:00 AM 39.7962 82.6716 220° Southwest  Level Estimated
Wed 06:17:00 AM 39.7183 82.5883 219° Southwest  Level Estimated
Wed 06:18:00 AM 39.6403 82.5051 219° Southwest  Level Estimated
Wed 06:19:00 AM 39.5623 82.4222 219° Southwest  Level Estimated
Wed 06:20:00 AM 39.4842 82.3394 219° Southwest  Level Estimated
Wed 06:21:00 AM 39.4060 82.2568 219° Southwest  Level Estimated
Wed 06:22:00 AM 39.3278 82.1744 219° Southwest  Level Estimated
Wed 06:23:00 AM 39.2495 82.0922 219° Southwest  Level Estimated
Wed 06:24:00 AM 39.1712 82.0102 219° Southwest  Level Estimated
Wed 06:25:00 AM 39.0928 81.9283 219° Southwest  Level Estimated
Wed 06:26:00 AM 39.0143 81.8466 219° Southwest  Level Estimated
Wed 06:27:00 AM 38.9358 81.7652 219° Southwest  Level Estimated
Wed 06:28:00 AM 38.8573 81.6838 219° Southwest  Level Estimated
Wed 06:29:00 AM 38.7786 81.6027 219° Southwest  Level Estimated
Wed 06:30:00 AM 38.7000 81.5218 219° Southwest  Level Estimated
Wed 06:31:00 AM 38.6212 81.4410 219° Southwest  Level Estimated
Wed 06:32:00 AM 38.5424 81.3604 219° Southwest  Level Estimated
Wed 06:33:00 AM 38.4636 81.2800 219° Southwest  Level Estimated
Wed 06:34:00 AM 38.3847 81.1997 219° Southwest  Level Estimated
Wed 06:35:00 AM 38.3058 81.1197 219° Southwest  Level Estimated
Wed 06:36:00 AM 38.2267 81.0398 218° Southwest  Level Estimated
Wed 06:37:00 AM 38.1477 80.9601 218° Southwest  Level Estimated
Wed 06:38:00 AM 38.0686 80.8805 218° Southwest  Level Estimated
Wed 06:39:00 AM 37.9894 80.8012 218° Southwest  Level Estimated
Wed 06:40:00 AM 37.9102 80.7220 218° Southwest  Level Estimated
Wed 06:41:00 AM 37.8309 80.6429 218° Southwest  Level Estimated
Wed 06:42:00 AM 37.7516 80.5641 218° Southwest  Level Estimated
Wed 06:43:00 AM 37.6722 80.4854 218° Southwest  Level Estimated
Wed 06:44:00 AM 37.5928 80.4069 218° Southwest  Level Estimated
Wed 06:45:00 AM 37.5133 80.3285 218° Southwest  Level Estimated
Wed 06:46:00 AM 37.4338 80.2503 218° Southwest  Level Estimated
Wed 06:47:00 AM 37.3542 80.1723 218° Southwest  Level Estimated
Wed 06:48:00 AM 37.2745 80.0944 218° Southwest  Level Estimated
Wed 06:49:00 AM 37.1948 80.0167 218° Southwest  Level Estimated
Wed 06:50:00 AM 37.1151 79.9392 218° Southwest  Level Estimated
Wed 06:51:00 AM 37.0385 79.8649 218° Southwest  Level Estimated
Wed 06:52:00 AM 37.0385 79.8649 50° Northeast  Level Estimated
Wed 06:53:00 AM 37.0385 79.8649 50° Northeast  Level Estimated
Wed 06:54:00 AM 37.0385 79.8649 50° Northeast  Level Estimated
Wed 06:55:00 AM 37.0385 79.8649 50° Northeast  Level Estimated
Wed 06:56:00 AM 37.0385 79.8649 50° Northeast  Level Estimated
Wed 06:57:00 AM 37.0385 79.8649 50° Northeast  Level Estimated
Wed 06:58:00 AM 37.0385 79.8649 50° Northeast  Level Estimated
Wed 06:59:00 AM 37.0385 79.8649 50° Northeast  Level Estimated
Wed 07:00:00 AM 37.0385 79.8649 50° Northeast  Level Estimated
Wed 07:01:00 AM 37.0385 79.8649 50° Northeast  Level Estimated
Wed 07:02:00 AM 37.0385 79.8649 50° Northeast  Level Estimated
Wed 07:03:00 AM 37.0385 79.8649 50° Northeast  Level Estimated
Wed 07:04:00 AM 37.0385 79.8649 50° Northeast  Level Estimated
Wed 07:05:00 AM 37.0385 79.8649 50° Northeast  Level Estimated
Wed 07:06:00 AM 37.0385 79.8649 50° Northeast  Level Estimated
Wed 07:07:00 AM 37.0385 79.8649 50° Northeast  Level Estimated

Login

Don't have an account? Register now (free) for customized features, flight alerts, and more!